EFW64C LEMG-EGKK
Flight info
| Callsign | EFW64C |
|---|---|
| Flight time | 2h 21m |
| Altitude | 34000 |
| Route | BLN N865 VTB N867 NENEM DCT YURZI DCT ERIGA DCT ARTIV DCT REVTU UP88 VASUX VASU1G |
| Aircraft | A321/M-L/3622 |
Departure
| Time | 2026-05-06 13:41 |
|---|---|
| Airport | Málaga-Costa del Sol Airport (LEMG) |
Arrival
| Time | 2026-05-06 16:02 |
|---|---|
| Airport | London Gatwick Airport (EGKK) |
| Time | Latitude | Longitude | Altitude | Speed | Heading |
|---|---|---|---|---|---|
| 2026-05-06 13:17 | 36.67395 | -4.49112 | 62 ft | 0 kts | 106° |
| 2026-05-06 13:27 | 36.67399 | -4.49128 | 63 ft | 2 kts | 106° |
| 2026-05-06 13:27 | 36.67404 | -4.49150 | 63 ft | 3 kts | 106° |
| 2026-05-06 13:28 | 36.67409 | -4.49169 | 63 ft | 2 kts | 106° |
| 2026-05-06 13:28 | 36.67411 | -4.49191 | 63 ft | 3 kts | 83° |
| 2026-05-06 13:28 | 36.67407 | -4.49209 | 63 ft | 0 kts | 60° |
| 2026-05-06 13:28 | 36.67405 | -4.49212 | 63 ft | 2 kts | 60° |
| 2026-05-06 13:29 | 36.67397 | -4.49230 | 63 ft | 3 kts | 60° |
| 2026-05-06 13:29 | 36.67387 | -4.49251 | 63 ft | 3 kts | 60° |
| 2026-05-06 13:29 | 36.67381 | -4.49264 | 63 ft | 0 kts | 60° |
| 2026-05-06 13:29 | 36.67381 | -4.49265 | 63 ft | 1 kts | 60° |
| 2026-05-06 13:30 | 36.67374 | -4.49278 | 63 ft | 2 kts | 48° |
| 2026-05-06 13:30 | 36.67367 | -4.49286 | 63 ft | 0 kts | 33° |
| 2026-05-06 13:33 | 36.67371 | -4.49283 | 63 ft | 3 kts | 30° |
| 2026-05-06 13:33 | 36.67397 | -4.49295 | 63 ft | 6 kts | 315° |
| 2026-05-06 13:34 | 36.67435 | -4.49344 | 63 ft | 9 kts | 313° |
| 2026-05-06 13:34 | 36.67462 | -4.49427 | 63 ft | 12 kts | 264° |
| 2026-05-06 13:34 | 36.67418 | -4.49507 | 63 ft | 11 kts | 253° |
| 2026-05-06 13:34 | 36.67454 | -4.49588 | 63 ft | 12 kts | 307° |
| 2026-05-06 13:35 | 36.67512 | -4.49679 | 63 ft | 15 kts | 313° |
| 2026-05-06 13:35 | 36.67587 | -4.49783 | 63 ft | 17 kts | 311° |
| 2026-05-06 13:35 | 36.67671 | -4.49900 | 63 ft | 19 kts | 311° |
| 2026-05-06 13:35 | 36.67758 | -4.50022 | 63 ft | 17 kts | 311° |
| 2026-05-06 13:36 | 36.67839 | -4.50135 | 63 ft | 18 kts | 311° |
| 2026-05-06 13:36 | 36.67924 | -4.50253 | 63 ft | 17 kts | 311° |
| 2026-05-06 13:36 | 36.68007 | -4.50369 | 63 ft | 19 kts | 311° |
| 2026-05-06 13:36 | 36.68092 | -4.50488 | 63 ft | 17 kts | 311° |
| 2026-05-06 13:37 | 36.68174 | -4.50601 | 63 ft | 18 kts | 311° |
| 2026-05-06 13:37 | 36.68261 | -4.50723 | 63 ft | 15 kts | 311° |
| 2026-05-06 13:37 | 36.68333 | -4.50824 | 63 ft | 17 kts | 311° |
| 2026-05-06 13:37 | 36.68410 | -4.50932 | 63 ft | 11 kts | 311° |
| 2026-05-06 13:38 | 36.68450 | -4.50989 | 63 ft | 10 kts | 311° |
| 2026-05-06 13:38 | 36.68486 | -4.51073 | 63 ft | 11 kts | 272° |
| 2026-05-06 13:38 | 36.68485 | -4.51097 | 63 ft | 0 kts | 255° |
| 2026-05-06 13:39 | 36.68482 | -4.51110 | 63 ft | 3 kts | 255° |
| 2026-05-06 13:39 | 36.68472 | -4.51150 | 63 ft | 7 kts | 248° |
| 2026-05-06 13:39 | 36.68428 | -4.51194 | 63 ft | 9 kts | 181° |
| 2026-05-06 13:40 | 36.68377 | -4.51159 | 63 ft | 6 kts | 133° |
| 2026-05-06 13:40 | 36.68376 | -4.51157 | 63 ft | 0 kts | 133° |
| 2026-05-06 13:40 | 36.68352 | -4.51124 | 63 ft | 25 kts | 132° |
| 2026-05-06 13:41 | 36.68059 | -4.50717 | 63 ft | 102 kts | 131° |
| 2026-05-06 13:41 | 36.67425 | -4.49835 | 64 ft | 169 kts | 131° |
| 2026-05-06 13:41 | 36.66594 | -4.48675 | 546 ft | 178 kts | 131° |
| 2026-05-06 13:41 | 36.65808 | -4.47467 | 1087 ft | 183 kts | 129° |
| 2026-05-06 13:42 | 36.65019 | -4.46160 | 1590 ft | 194 kts | 128° |
| 2026-05-06 13:42 | 36.64181 | -4.44777 | 2070 ft | 205 kts | 128° |
| 2026-05-06 13:42 | 36.63271 | -4.43286 | 2518 ft | 225 kts | 128° |
| 2026-05-06 13:42 | 36.62291 | -4.41685 | 3072 ft | 239 kts | 128° |
| 2026-05-06 13:43 | 36.61291 | -4.39998 | 3598 ft | 245 kts | 122° |
| 2026-05-06 13:43 | 36.60767 | -4.37974 | 4116 ft | 250 kts | 95° |
| 2026-05-06 13:43 | 36.60856 | -4.35803 | 4610 ft | 257 kts | 83° |
| 2026-05-06 13:43 | 36.61167 | -4.33584 | 5073 ft | 262 kts | 77° |
| 2026-05-06 13:44 | 36.61929 | -4.31552 | 5509 ft | 266 kts | 51° |
| 2026-05-06 13:44 | 36.63311 | -4.30025 | 6086 ft | 269 kts | 34° |
| 2026-05-06 13:44 | 36.64973 | -4.28855 | 6659 ft | 277 kts | 26° |
| 2026-05-06 13:44 | 36.66745 | -4.27870 | 7214 ft | 281 kts | 22° |
| 2026-05-06 13:45 | 36.68547 | -4.26958 | 7765 ft | 279 kts | 21° |
| 2026-05-06 13:45 | 36.72197 | -4.25136 | 8868 ft | 286 kts | 22° |
| 2026-05-06 13:45 | 36.74048 | -4.24172 | 9419 ft | 291 kts | 22° |
| 2026-05-06 13:46 | 36.75914 | -4.23174 | 9972 ft | 293 kts | 23° |
| 2026-05-06 13:46 | 36.77782 | -4.22142 | 10524 ft | 296 kts | 24° |
| 2026-05-06 13:46 | 36.79674 | -4.21079 | 11080 ft | 303 kts | 24° |
| 2026-05-06 13:46 | 36.81630 | -4.19970 | 11550 ft | 315 kts | 24° |
| 2026-05-06 13:47 | 36.83639 | -4.18822 | 11878 ft | 320 kts | 24° |
| 2026-05-06 13:47 | 36.85692 | -4.17652 | 12284 ft | 328 kts | 24° |
| 2026-05-06 13:47 | 36.87803 | -4.16462 | 12693 ft | 336 kts | 23° |
| 2026-05-06 13:47 | 36.89952 | -4.15256 | 13096 ft | 339 kts | 23° |
| 2026-05-06 13:48 | 36.92110 | -4.14042 | 13498 ft | 341 kts | 23° |
| 2026-05-06 13:48 | 36.94306 | -4.12801 | 13930 ft | 352 kts | 23° |
| 2026-05-06 13:48 | 36.96547 | -4.11527 | 14455 ft | 356 kts | 23° |
| 2026-05-06 13:48 | 36.98826 | -4.10223 | 14985 ft | 364 kts | 23° |
| 2026-05-06 13:49 | 37.01118 | -4.08903 | 15509 ft | 369 kts | 23° |
| 2026-05-06 13:49 | 37.03468 | -4.07553 | 16037 ft | 374 kts | 22° |
| 2026-05-06 13:49 | 37.05859 | -4.06196 | 16565 ft | 378 kts | 22° |
| 2026-05-06 13:49 | 37.08265 | -4.04836 | 17091 ft | 382 kts | 22° |
| 2026-05-06 13:50 | 37.10700 | -4.03457 | 17618 ft | 385 kts | 22° |
| 2026-05-06 13:50 | 37.13175 | -4.02051 | 17870 ft | 394 kts | 22° |
| 2026-05-06 13:50 | 37.15668 | -4.00631 | 18048 ft | 394 kts | 22° |
| 2026-05-06 13:50 | 37.18150 | -3.99209 | 18473 ft | 398 kts | 21° |
| 2026-05-06 13:51 | 37.20720 | -3.97902 | 18927 ft | 399 kts | 17° |
| 2026-05-06 13:51 | 37.23370 | -3.96796 | 19386 ft | 401 kts | 14° |
| 2026-05-06 13:51 | 37.26050 | -3.95817 | 19844 ft | 403 kts | 12° |
| 2026-05-06 13:51 | 37.28769 | -3.94890 | 20298 ft | 405 kts | 12° |
| 2026-05-06 13:52 | 37.31501 | -3.93976 | 20730 ft | 408 kts | 12° |
| 2026-05-06 13:52 | 37.34265 | -3.93071 | 21137 ft | 410 kts | 9° |
| 2026-05-06 13:52 | 37.37062 | -3.92352 | 21540 ft | 413 kts | 6° |
| 2026-05-06 13:52 | 37.39913 | -3.91788 | 21946 ft | 415 kts | 4° |
| 2026-05-06 13:53 | 37.42792 | -3.91306 | 22349 ft | 419 kts | 3° |
| 2026-05-06 13:53 | 37.45667 | -3.90859 | 22747 ft | 423 kts | 2° |
| 2026-05-06 13:53 | 37.48637 | -3.90405 | 23153 ft | 427 kts | 2° |
| 2026-05-06 13:53 | 37.51598 | -3.89927 | 23493 ft | 431 kts | 2° |
| 2026-05-06 13:54 | 37.54555 | -3.89421 | 23758 ft | 437 kts | 2° |
| 2026-05-06 13:54 | 37.57586 | -3.88883 | 24014 ft | 440 kts | 3° |
| 2026-05-06 13:54 | 37.60623 | -3.88331 | 24265 ft | 441 kts | 3° |
| 2026-05-06 13:54 | 37.63674 | -3.87770 | 24517 ft | 445 kts | 3° |
| 2026-05-06 13:55 | 37.66749 | -3.87187 | 24769 ft | 447 kts | 3° |
| 2026-05-06 13:55 | 37.69835 | -3.86593 | 25020 ft | 449 kts | 3° |
| 2026-05-06 13:55 | 37.72930 | -3.86004 | 25270 ft | 451 kts | 3° |
| 2026-05-06 13:55 | 37.76040 | -3.85414 | 25521 ft | 452 kts | 3° |
| 2026-05-06 13:56 | 37.79166 | -3.84823 | 25773 ft | 455 kts | 3° |
| 2026-05-06 13:56 | 37.82314 | -3.84229 | 26025 ft | 459 kts | 3° |
| 2026-05-06 13:56 | 37.85493 | -3.83630 | 26279 ft | 463 kts | 3° |
| 2026-05-06 13:56 | 37.88679 | -3.83029 | 26512 ft | 463 kts | 3° |
| 2026-05-06 13:57 | 37.91834 | -3.82431 | 26715 ft | 463 kts | 3° |
| 2026-05-06 13:57 | 37.95017 | -3.81824 | 26915 ft | 462 kts | 3° |
| 2026-05-06 13:57 | 37.98195 | -3.81216 | 27114 ft | 461 kts | 3° |
| 2026-05-06 13:57 | 38.01366 | -3.80605 | 27313 ft | 461 kts | 3° |
| 2026-05-06 13:58 | 38.04545 | -3.80001 | 27512 ft | 461 kts | 3° |
| 2026-05-06 13:58 | 38.07705 | -3.79419 | 27704 ft | 459 kts | 3° |
| 2026-05-06 13:58 | 38.10875 | -3.78847 | 27844 ft | 464 kts | 3° |
| 2026-05-06 13:58 | 38.14084 | -3.78247 | 27909 ft | 466 kts | 4° |
| 2026-05-06 13:59 | 38.17282 | -3.77629 | 27916 ft | 465 kts | 4° |
| 2026-05-06 13:59 | 38.20488 | -3.76997 | 27914 ft | 465 kts | 4° |
| 2026-05-06 13:59 | 38.23686 | -3.76376 | 27923 ft | 464 kts | 4° |
| 2026-05-06 13:59 | 38.26870 | -3.75778 | 28092 ft | 462 kts | 3° |
| 2026-05-06 14:00 | 38.30062 | -3.75187 | 28338 ft | 463 kts | 3° |
| 2026-05-06 14:00 | 38.33217 | -3.74597 | 28605 ft | 464 kts | 3° |
| 2026-05-06 14:00 | 38.36402 | -3.73993 | 28878 ft | 462 kts | 3° |
| 2026-05-06 14:00 | 38.39589 | -3.73390 | 29149 ft | 462 kts | 3° |
| 2026-05-06 14:01 | 38.42782 | -3.72783 | 29405 ft | 463 kts | 3° |
| 2026-05-06 14:01 | 38.45984 | -3.72172 | 29657 ft | 466 kts | 3° |
| 2026-05-06 14:01 | 38.49195 | -3.71556 | 29895 ft | 466 kts | 4° |
| 2026-05-06 14:01 | 38.52369 | -3.70933 | 30119 ft | 459 kts | 4° |
| 2026-05-06 14:02 | 38.55524 | -3.70301 | 30343 ft | 459 kts | 4° |
| 2026-05-06 14:02 | 38.58686 | -3.69683 | 30568 ft | 461 kts | 4° |
| 2026-05-06 14:02 | 38.61871 | -3.69079 | 30795 ft | 464 kts | 3° |
| 2026-05-06 14:02 | 38.65077 | -3.68479 | 31021 ft | 465 kts | 3° |
| 2026-05-06 14:03 | 38.68279 | -3.67883 | 31245 ft | 465 kts | 3° |
| 2026-05-06 14:03 | 38.71482 | -3.67283 | 31469 ft | 464 kts | 3° |
| 2026-05-06 14:03 | 38.74684 | -3.66681 | 31693 ft | 465 kts | 3° |
| 2026-05-06 14:03 | 38.77879 | -3.66075 | 31917 ft | 465 kts | 3° |
| 2026-05-06 14:04 | 38.81015 | -3.65452 | 32139 ft | 457 kts | 4° |
| 2026-05-06 14:04 | 38.84162 | -3.64799 | 32362 ft | 456 kts | 4° |
| 2026-05-06 14:04 | 38.87300 | -3.64162 | 32586 ft | 456 kts | 3° |
| 2026-05-06 14:04 | 38.90438 | -3.63539 | 32810 ft | 456 kts | 3° |
| 2026-05-06 14:05 | 38.93569 | -3.62922 | 33034 ft | 455 kts | 3° |
| 2026-05-06 14:05 | 38.96706 | -3.62308 | 33258 ft | 455 kts | 3° |
| 2026-05-06 14:05 | 38.99838 | -3.61701 | 33482 ft | 455 kts | 3° |
| 2026-05-06 14:05 | 39.02963 | -3.61103 | 33704 ft | 454 kts | 3° |
| 2026-05-06 14:06 | 39.06056 | -3.60502 | 33861 ft | 455 kts | 3° |
| 2026-05-06 14:06 | 39.09190 | -3.59887 | 33941 ft | 455 kts | 3° |
| 2026-05-06 14:06 | 39.15452 | -3.58651 | 33962 ft | 454 kts | 3° |
| 2026-05-06 14:07 | 39.21709 | -3.57440 | 33963 ft | 454 kts | 3° |
| 2026-05-06 14:07 | 39.27959 | -3.56216 | 33963 ft | 454 kts | 3° |
| 2026-05-06 14:08 | 39.34161 | -3.55000 | 33963 ft | 454 kts | 3° |
| 2026-05-06 14:08 | 39.40415 | -3.53785 | 33963 ft | 454 kts | 3° |
| 2026-05-06 14:09 | 39.46659 | -3.52557 | 33963 ft | 454 kts | 3° |
| 2026-05-06 14:09 | 39.52907 | -3.51350 | 33963 ft | 454 kts | 3° |
| 2026-05-06 14:10 | 39.59130 | -3.50180 | 33963 ft | 454 kts | 3° |
| 2026-05-06 14:10 | 39.65379 | -3.48961 | 33963 ft | 454 kts | 3° |
| 2026-05-06 14:11 | 39.71623 | -3.47720 | 33963 ft | 454 kts | 3° |
| 2026-05-06 14:11 | 39.77871 | -3.46466 | 33963 ft | 454 kts | 3° |
| 2026-05-06 14:12 | 39.84121 | -3.45197 | 33963 ft | 454 kts | 3° |
| 2026-05-06 14:12 | 39.90366 | -3.43939 | 33963 ft | 454 kts | 3° |
| 2026-05-06 14:13 | 39.96617 | -3.42683 | 33963 ft | 454 kts | 3° |
| 2026-05-06 14:13 | 40.02858 | -3.41428 | 33963 ft | 454 kts | 3° |
| 2026-05-06 14:14 | 40.09112 | -3.40169 | 33963 ft | 454 kts | 3° |
| 2026-05-06 14:14 | 40.15369 | -3.38915 | 33965 ft | 460 kts | 3° |
| 2026-05-06 14:15 | 40.21702 | -3.37650 | 33963 ft | 460 kts | 3° |
| 2026-05-06 14:15 | 40.28096 | -3.36354 | 33964 ft | 467 kts | 3° |
| 2026-05-06 14:16 | 40.34524 | -3.35048 | 33963 ft | 466 kts | 2° |
| 2026-05-06 14:16 | 40.40936 | -3.33775 | 33963 ft | 466 kts | 2° |
| 2026-05-06 14:17 | 40.47313 | -3.32468 | 33965 ft | 466 kts | 2° |
| 2026-05-06 14:17 | 40.53733 | -3.31154 | 33966 ft | 467 kts | 2° |
| 2026-05-06 14:18 | 40.60154 | -3.29861 | 33967 ft | 466 kts | 2° |
| 2026-05-06 14:18 | 40.66570 | -3.28537 | 33973 ft | 466 kts | 3° |
| 2026-05-06 14:19 | 40.71905 | -3.27449 | 33971 ft | 466 kts | 2° |
| 2026-05-06 14:19 | 40.79365 | -3.25907 | 33970 ft | 466 kts | 2° |
| 2026-05-06 14:20 | 40.84694 | -3.24815 | 33972 ft | 466 kts | 2° |
| 2026-05-06 14:20 | 40.91111 | -3.23445 | 33972 ft | 467 kts | 3° |
| 2026-05-06 14:21 | 40.97431 | -3.21991 | 33970 ft | 453 kts | 5° |
| 2026-05-06 14:21 | 41.03655 | -3.20538 | 33974 ft | 455 kts | 5° |
| 2026-05-06 14:22 | 41.09912 | -3.19152 | 33974 ft | 456 kts | 5° |
| 2026-05-06 14:22 | 41.16161 | -3.17726 | 33974 ft | 455 kts | 5° |
| 2026-05-06 14:23 | 41.22379 | -3.16340 | 33974 ft | 455 kts | 5° |
| 2026-05-06 14:23 | 41.28631 | -3.14912 | 33974 ft | 455 kts | 5° |
| 2026-05-06 14:24 | 41.34885 | -3.13520 | 33976 ft | 455 kts | 5° |
| 2026-05-06 14:24 | 41.41130 | -3.12095 | 33977 ft | 455 kts | 5° |
| 2026-05-06 14:25 | 41.47377 | -3.10700 | 33979 ft | 455 kts | 5° |
| 2026-05-06 14:25 | 41.53547 | -3.09288 | 33989 ft | 448 kts | 5° |
| 2026-05-06 14:26 | 41.59704 | -3.07916 | 33993 ft | 449 kts | 5° |
| 2026-05-06 14:26 | 41.65889 | -3.06505 | 33994 ft | 450 kts | 6° |
| 2026-05-06 14:27 | 41.72062 | -3.05085 | 33997 ft | 450 kts | 6° |
| 2026-05-06 14:27 | 41.78195 | -3.03678 | 33994 ft | 450 kts | 6° |
| 2026-05-06 14:28 | 41.84374 | -3.02227 | 33993 ft | 450 kts | 6° |
| 2026-05-06 14:28 | 41.90552 | -3.00806 | 33997 ft | 450 kts | 6° |
| 2026-05-06 14:29 | 41.96688 | -2.99375 | 33997 ft | 450 kts | 5° |
| 2026-05-06 14:29 | 42.02889 | -2.97932 | 33997 ft | 450 kts | 6° |
| 2026-05-06 14:30 | 42.09061 | -2.96510 | 33998 ft | 450 kts | 6° |
| 2026-05-06 14:30 | 42.15195 | -2.95072 | 33999 ft | 450 kts | 6° |
| 2026-05-06 14:31 | 42.21402 | -2.93655 | 33999 ft | 454 kts | 4° |
| 2026-05-06 14:31 | 42.27636 | -2.92221 | 33999 ft | 454 kts | 4° |
| 2026-05-06 14:32 | 42.33865 | -2.90781 | 34000 ft | 454 kts | 4° |
| 2026-05-06 14:32 | 42.40099 | -2.89336 | 34003 ft | 454 kts | 4° |
| 2026-05-06 14:33 | 42.46284 | -2.87933 | 34003 ft | 452 kts | 1° |
| 2026-05-06 14:33 | 42.52489 | -2.87725 | 34006 ft | 436 kts | 353° |
| 2026-05-06 14:34 | 42.58522 | -2.88427 | 34011 ft | 435 kts | 350° |
| 2026-05-06 14:34 | 42.64562 | -2.89219 | 34012 ft | 436 kts | 351° |
| 2026-05-06 14:35 | 42.70541 | -2.89786 | 34014 ft | 437 kts | 353° |
| 2026-05-06 14:35 | 42.76679 | -2.90172 | 34022 ft | 437 kts | 354° |
| 2026-05-06 14:36 | 42.82757 | -2.90524 | 34023 ft | 437 kts | 353° |
| 2026-05-06 14:36 | 42.88849 | -2.90906 | 34024 ft | 437 kts | 353° |
| 2026-05-06 14:37 | 42.94924 | -2.91296 | 34030 ft | 437 kts | 353° |
| 2026-05-06 14:37 | 43.00961 | -2.91687 | 34031 ft | 437 kts | 353° |
| 2026-05-06 14:38 | 43.07040 | -2.92083 | 34033 ft | 437 kts | 353° |
| 2026-05-06 14:38 | 43.13115 | -2.92480 | 34045 ft | 437 kts | 353° |
| 2026-05-06 14:39 | 43.19201 | -2.92876 | 34047 ft | 437 kts | 353° |
| 2026-05-06 14:39 | 43.25276 | -2.93237 | 34045 ft | 437 kts | 353° |
| 2026-05-06 14:40 | 43.31359 | -2.93669 | 34049 ft | 436 kts | 351° |
| 2026-05-06 14:40 | 43.37286 | -2.94952 | 34052 ft | 432 kts | 344° |
| 2026-05-06 14:41 | 43.43148 | -2.96851 | 34051 ft | 431 kts | 342° |
| 2026-05-06 14:41 | 43.48977 | -2.98813 | 34050 ft | 431 kts | 343° |
| 2026-05-06 14:42 | 43.54843 | -3.00635 | 34049 ft | 432 kts | 344° |
| 2026-05-06 14:42 | 43.60710 | -3.02307 | 34049 ft | 433 kts | 345° |
| 2026-05-06 14:43 | 43.66603 | -3.03974 | 34048 ft | 432 kts | 344° |
| 2026-05-06 14:43 | 43.72497 | -3.05687 | 34048 ft | 432 kts | 344° |
| 2026-05-06 14:44 | 43.78394 | -3.07370 | 34047 ft | 432 kts | 344° |
| 2026-05-06 14:45 | 43.87195 | -3.09898 | 34048 ft | 432 kts | 344° |
| 2026-05-06 14:45 | 43.93084 | -3.11590 | 34048 ft | 432 kts | 344° |
| 2026-05-06 14:46 | 43.98977 | -3.13280 | 34047 ft | 432 kts | 344° |
| 2026-05-06 14:46 | 44.04921 | -3.14600 | 34047 ft | 436 kts | 353° |
| 2026-05-06 14:47 | 44.11019 | -3.14034 | 34049 ft | 444 kts | 6° |
| 2026-05-06 14:47 | 44.17052 | -3.12077 | 34052 ft | 446 kts | 11° |
| 2026-05-06 14:48 | 44.23036 | -3.09762 | 34043 ft | 446 kts | 11° |
| 2026-05-06 14:48 | 44.29011 | -3.07633 | 34038 ft | 445 kts | 9° |
| 2026-05-06 14:49 | 44.34983 | -3.05739 | 34039 ft | 433 kts | 11° |
| 2026-05-06 14:49 | 44.40855 | -3.03981 | 34038 ft | 432 kts | 11° |
| 2026-05-06 14:50 | 44.46748 | -3.02182 | 34038 ft | 433 kts | 11° |
| 2026-05-06 14:50 | 44.52631 | -3.00367 | 34031 ft | 433 kts | 11° |
| 2026-05-06 14:51 | 44.58480 | -2.98556 | 34025 ft | 433 kts | 11° |
| 2026-05-06 14:51 | 44.64373 | -2.96729 | 34020 ft | 433 kts | 11° |
| 2026-05-06 14:52 | 44.70263 | -2.94900 | 34013 ft | 433 kts | 11° |
| 2026-05-06 14:52 | 44.76160 | -2.93082 | 34008 ft | 433 kts | 11° |
| 2026-05-06 14:53 | 44.82021 | -2.91336 | 34004 ft | 433 kts | 11° |
| 2026-05-06 14:53 | 44.87901 | -2.89508 | 34007 ft | 432 kts | 11° |
| 2026-05-06 14:54 | 44.93769 | -2.87624 | 34005 ft | 433 kts | 11° |
| 2026-05-06 14:54 | 44.99655 | -2.85771 | 34003 ft | 433 kts | 11° |
| 2026-05-06 14:55 | 45.05534 | -2.83918 | 34002 ft | 432 kts | 11° |
| 2026-05-06 14:55 | 45.11401 | -2.82057 | 34000 ft | 432 kts | 11° |
| 2026-05-06 14:56 | 45.17242 | -2.80207 | 33993 ft | 433 kts | 11° |
| 2026-05-06 14:56 | 45.23117 | -2.78351 | 33992 ft | 432 kts | 11° |
| 2026-05-06 14:57 | 45.28996 | -2.76486 | 33989 ft | 433 kts | 11° |
| 2026-05-06 14:57 | 45.34879 | -2.74628 | 33986 ft | 433 kts | 11° |
| 2026-05-06 14:58 | 45.40763 | -2.72762 | 33988 ft | 432 kts | 11° |
| 2026-05-06 14:58 | 45.46603 | -2.70915 | 33985 ft | 433 kts | 11° |
| 2026-05-06 14:59 | 45.52475 | -2.68978 | 33983 ft | 433 kts | 12° |
| 2026-05-06 14:59 | 45.58348 | -2.67067 | 33986 ft | 432 kts | 11° |
| 2026-05-06 15:00 | 45.64215 | -2.65198 | 33983 ft | 432 kts | 11° |
| 2026-05-06 15:00 | 45.70112 | -2.63299 | 33978 ft | 434 kts | 12° |
| 2026-05-06 15:01 | 45.75964 | -2.61368 | 33979 ft | 433 kts | 12° |
| 2026-05-06 15:01 | 45.81849 | -2.59416 | 33975 ft | 434 kts | 12° |
| 2026-05-06 15:02 | 45.87720 | -2.57530 | 33969 ft | 430 kts | 12° |
| 2026-05-06 15:02 | 45.93558 | -2.55646 | 33964 ft | 430 kts | 12° |
| 2026-05-06 15:03 | 45.99357 | -2.53768 | 33963 ft | 430 kts | 12° |
| 2026-05-06 15:03 | 46.05198 | -2.51874 | 33963 ft | 430 kts | 12° |
| 2026-05-06 15:04 | 46.11034 | -2.49979 | 33963 ft | 429 kts | 12° |
| 2026-05-06 15:04 | 46.16879 | -2.48078 | 33963 ft | 430 kts | 12° |
| 2026-05-06 15:05 | 46.22763 | -2.46600 | 33964 ft | 429 kts | 7° |
| 2026-05-06 15:05 | 46.28692 | -2.45689 | 33964 ft | 428 kts | 5° |
| 2026-05-06 15:06 | 46.34582 | -2.44901 | 33963 ft | 428 kts | 5° |
| 2026-05-06 15:06 | 46.40501 | -2.44012 | 33963 ft | 428 kts | 6° |
| 2026-05-06 15:07 | 46.46419 | -2.43056 | 33963 ft | 427 kts | 6° |
| 2026-05-06 15:07 | 46.51364 | -2.42210 | 33963 ft | 427 kts | 6° |
| 2026-05-06 15:08 | 46.57245 | -2.41218 | 33963 ft | 427 kts | 6° |
| 2026-05-06 15:08 | 46.63157 | -2.40230 | 33963 ft | 427 kts | 6° |
| 2026-05-06 15:09 | 46.69067 | -2.39228 | 33963 ft | 427 kts | 6° |
| 2026-05-06 15:09 | 46.74983 | -2.38232 | 33963 ft | 427 kts | 6° |
| 2026-05-06 15:10 | 46.80888 | -2.37236 | 33963 ft | 427 kts | 6° |
| 2026-05-06 15:10 | 46.86757 | -2.36167 | 33963 ft | 427 kts | 7° |
| 2026-05-06 15:11 | 46.92638 | -2.34873 | 33963 ft | 427 kts | 8° |
| 2026-05-06 15:11 | 46.98508 | -2.33467 | 33963 ft | 427 kts | 9° |
| 2026-05-06 15:12 | 47.04378 | -2.32027 | 33963 ft | 427 kts | 9° |
| 2026-05-06 15:12 | 47.10247 | -2.30578 | 33963 ft | 427 kts | 9° |
| 2026-05-06 15:13 | 47.16123 | -2.29123 | 33963 ft | 427 kts | 9° |
| 2026-05-06 15:13 | 47.21961 | -2.27704 | 33963 ft | 427 kts | 8° |
| 2026-05-06 15:14 | 47.27828 | -2.26316 | 33963 ft | 427 kts | 8° |
| 2026-05-06 15:14 | 47.33714 | -2.24908 | 33963 ft | 427 kts | 8° |
| 2026-05-06 15:15 | 47.39555 | -2.23507 | 33963 ft | 427 kts | 8° |
| 2026-05-06 15:15 | 47.45429 | -2.22109 | 33963 ft | 427 kts | 8° |
| 2026-05-06 15:16 | 47.51314 | -2.20706 | 33963 ft | 428 kts | 8° |
| 2026-05-06 15:16 | 47.57157 | -2.19315 | 33963 ft | 427 kts | 8° |
| 2026-05-06 15:17 | 47.63041 | -2.17913 | 33963 ft | 427 kts | 9° |
| 2026-05-06 15:17 | 47.68917 | -2.16464 | 33962 ft | 428 kts | 9° |
| 2026-05-06 15:18 | 47.74775 | -2.15029 | 33968 ft | 426 kts | 8° |
| 2026-05-06 15:18 | 47.80596 | -2.13594 | 33961 ft | 428 kts | 9° |
| 2026-05-06 15:19 | 47.86524 | -2.12135 | 33970 ft | 432 kts | 9° |
| 2026-05-06 15:19 | 47.92461 | -2.10679 | 33968 ft | 431 kts | 9° |
| 2026-05-06 15:20 | 47.98386 | -2.09227 | 33964 ft | 431 kts | 9° |
| 2026-05-06 15:20 | 48.04310 | -2.07777 | 33965 ft | 431 kts | 9° |
| 2026-05-06 15:21 | 48.10199 | -2.06335 | 33964 ft | 431 kts | 9° |
| 2026-05-06 15:21 | 48.16119 | -2.04884 | 33963 ft | 431 kts | 9° |
| 2026-05-06 15:22 | 48.22051 | -2.03429 | 33966 ft | 431 kts | 9° |
| 2026-05-06 15:22 | 48.27978 | -2.01972 | 33965 ft | 431 kts | 9° |
| 2026-05-06 15:23 | 48.33867 | -2.00510 | 33964 ft | 426 kts | 8° |
| 2026-05-06 15:23 | 48.39725 | -1.99011 | 33965 ft | 428 kts | 9° |
| 2026-05-06 15:24 | 48.45604 | -1.97536 | 33963 ft | 428 kts | 8° |
| 2026-05-06 15:24 | 48.51448 | -1.96054 | 33963 ft | 428 kts | 8° |
| 2026-05-06 15:25 | 48.57332 | -1.94575 | 33964 ft | 428 kts | 8° |
| 2026-05-06 15:25 | 48.63173 | -1.93106 | 33964 ft | 428 kts | 8° |
| 2026-05-06 15:26 | 48.69046 | -1.91626 | 33964 ft | 428 kts | 8° |
| 2026-05-06 15:26 | 48.74927 | -1.90143 | 33966 ft | 428 kts | 8° |
| 2026-05-06 15:27 | 48.80811 | -1.88663 | 33965 ft | 428 kts | 8° |
| 2026-05-06 15:27 | 48.86682 | -1.87208 | 33968 ft | 428 kts | 8° |
| 2026-05-06 15:28 | 48.92583 | -1.85911 | 33977 ft | 428 kts | 7° |
| 2026-05-06 15:28 | 48.98456 | -1.84795 | 33972 ft | 428 kts | 6° |
| 2026-05-06 15:29 | 49.04365 | -1.83670 | 33965 ft | 428 kts | 6° |
| 2026-05-06 15:29 | 49.10258 | -1.82483 | 33980 ft | 427 kts | 7° |
| 2026-05-06 15:30 | 49.16159 | -1.81273 | 33983 ft | 427 kts | 7° |
| 2026-05-06 15:30 | 49.22029 | -1.80073 | 33985 ft | 428 kts | 6° |
| 2026-05-06 15:31 | 49.27967 | -1.78896 | 33991 ft | 428 kts | 7° |
| 2026-05-06 15:31 | 49.33832 | -1.77712 | 33991 ft | 428 kts | 6° |
| 2026-05-06 15:32 | 49.42682 | -1.75939 | 33992 ft | 427 kts | 6° |
| 2026-05-06 15:32 | 49.48611 | -1.74744 | 33993 ft | 432 kts | 7° |
| 2026-05-06 15:33 | 49.54569 | -1.73531 | 33993 ft | 431 kts | 7° |
| 2026-05-06 15:33 | 49.60511 | -1.72235 | 33992 ft | 431 kts | 11° |
| 2026-05-06 15:34 | 49.66276 | -1.69647 | 33979 ft | 433 kts | 19° |
| 2026-05-06 15:34 | 49.69101 | -1.67990 | 33477 ft | 433 kts | 21° |
| 2026-05-06 15:34 | 49.71895 | -1.66239 | 32944 ft | 432 kts | 21° |
| 2026-05-06 15:35 | 49.74645 | -1.64496 | 32427 ft | 434 kts | 21° |
| 2026-05-06 15:35 | 49.77486 | -1.62731 | 31898 ft | 436 kts | 20° |
| 2026-05-06 15:35 | 49.80319 | -1.61030 | 31376 ft | 437 kts | 19° |
| 2026-05-06 15:35 | 49.83174 | -1.59367 | 30853 ft | 439 kts | 19° |
| 2026-05-06 15:36 | 49.86050 | -1.57747 | 30331 ft | 441 kts | 18° |
| 2026-05-06 15:36 | 49.88914 | -1.56162 | 29814 ft | 443 kts | 18° |
| 2026-05-06 15:36 | 49.91868 | -1.54540 | 29285 ft | 446 kts | 18° |
| 2026-05-06 15:36 | 49.94763 | -1.52955 | 28769 ft | 449 kts | 18° |
| 2026-05-06 15:37 | 49.97713 | -1.51319 | 28247 ft | 452 kts | 18° |
| 2026-05-06 15:37 | 50.00678 | -1.49651 | 27724 ft | 454 kts | 18° |
| 2026-05-06 15:37 | 50.03647 | -1.48086 | 27196 ft | 444 kts | 16° |
| 2026-05-06 15:37 | 50.06547 | -1.46671 | 26664 ft | 431 kts | 15° |
| 2026-05-06 15:38 | 50.09390 | -1.45357 | 26131 ft | 420 kts | 14° |
| 2026-05-06 15:38 | 50.12163 | -1.44103 | 25599 ft | 409 kts | 14° |
| 2026-05-06 15:38 | 50.14872 | -1.42865 | 25071 ft | 405 kts | 15° |
| 2026-05-06 15:38 | 50.17563 | -1.41628 | 24547 ft | 402 kts | 15° |
| 2026-05-06 15:39 | 50.20237 | -1.40385 | 24020 ft | 398 kts | 15° |
| 2026-05-06 15:39 | 50.22871 | -1.39131 | 23495 ft | 394 kts | 15° |
| 2026-05-06 15:39 | 50.25486 | -1.37873 | 22969 ft | 393 kts | 15° |
| 2026-05-06 15:39 | 50.28103 | -1.36614 | 22443 ft | 392 kts | 15° |
| 2026-05-06 15:40 | 50.30703 | -1.35379 | 21917 ft | 389 kts | 15° |
| 2026-05-06 15:40 | 50.33280 | -1.34168 | 21392 ft | 385 kts | 15° |
| 2026-05-06 15:40 | 50.35834 | -1.32949 | 20865 ft | 381 kts | 15° |
| 2026-05-06 15:40 | 50.38362 | -1.31744 | 20340 ft | 379 kts | 15° |
| 2026-05-06 15:41 | 50.40844 | -1.30571 | 19821 ft | 376 kts | 15° |
| 2026-05-06 15:41 | 50.43139 | -1.29476 | 19337 ft | 373 kts | 15° |
| 2026-05-06 15:41 | 50.45610 | -1.28284 | 18811 ft | 370 kts | 15° |
| 2026-05-06 15:41 | 50.47831 | -1.27163 | 18328 ft | 364 kts | 19° |
| 2026-05-06 15:42 | 50.50111 | -1.25490 | 17796 ft | 358 kts | 28° |
| 2026-05-06 15:42 | 50.52164 | -1.23329 | 17270 ft | 353 kts | 36° |
| 2026-05-06 15:42 | 50.54019 | -1.20832 | 16744 ft | 348 kts | 42° |
| 2026-05-06 15:42 | 50.55722 | -1.18158 | 16218 ft | 343 kts | 45° |
| 2026-05-06 15:43 | 50.57327 | -1.15410 | 15692 ft | 339 kts | 47° |
| 2026-05-06 15:43 | 50.58889 | -1.12654 | 15170 ft | 339 kts | 47° |
| 2026-05-06 15:43 | 50.60478 | -1.09856 | 14697 ft | 341 kts | 47° |
| 2026-05-06 15:43 | 50.62055 | -1.07117 | 14227 ft | 335 kts | 46° |
| 2026-05-06 15:44 | 50.63616 | -1.04437 | 13772 ft | 328 kts | 46° |
| 2026-05-06 15:44 | 50.64983 | -1.02132 | 13370 ft | 323 kts | 45° |
| 2026-05-06 15:44 | 50.66495 | -0.99619 | 12955 ft | 316 kts | 45° |
| 2026-05-06 15:44 | 50.68016 | -0.97104 | 12570 ft | 309 kts | 45° |
| 2026-05-06 15:45 | 50.69485 | -0.94670 | 12190 ft | 303 kts | 45° |
| 2026-05-06 15:45 | 50.70921 | -0.92284 | 11812 ft | 298 kts | 45° |
| 2026-05-06 15:45 | 50.72334 | -0.89934 | 11434 ft | 293 kts | 45° |
| 2026-05-06 15:45 | 50.73731 | -0.87622 | 11055 ft | 288 kts | 44° |
| 2026-05-06 15:46 | 50.75103 | -0.85385 | 10682 ft | 285 kts | 44° |
| 2026-05-06 15:46 | 50.76479 | -0.83155 | 10304 ft | 281 kts | 44° |
| 2026-05-06 15:46 | 50.77847 | -0.80977 | 9928 ft | 278 kts | 43° |
| 2026-05-06 15:46 | 50.79211 | -0.78823 | 9551 ft | 276 kts | 43° |
| 2026-05-06 15:47 | 50.80447 | -0.76872 | 9216 ft | 278 kts | 43° |
| 2026-05-06 15:47 | 50.81812 | -0.74711 | 8842 ft | 277 kts | 43° |
| 2026-05-06 15:47 | 50.83172 | -0.72547 | 8467 ft | 276 kts | 43° |
| 2026-05-06 15:47 | 50.84515 | -0.70404 | 8129 ft | 272 kts | 43° |
| 2026-05-06 15:48 | 50.85842 | -0.68273 | 8019 ft | 271 kts | 43° |
| 2026-05-06 15:48 | 50.87275 | -0.66335 | 7898 ft | 271 kts | 30° |
| 2026-05-06 15:48 | 50.88904 | -0.64974 | 7681 ft | 265 kts | 22° |
| 2026-05-06 15:48 | 50.90581 | -0.63862 | 7450 ft | 257 kts | 19° |
| 2026-05-06 15:49 | 50.92224 | -0.62862 | 7219 ft | 250 kts | 19° |
| 2026-05-06 15:49 | 50.93824 | -0.61920 | 7007 ft | 243 kts | 18° |
| 2026-05-06 15:49 | 50.95416 | -0.60992 | 6600 ft | 245 kts | 18° |
| 2026-05-06 15:49 | 50.97023 | -0.60065 | 6204 ft | 246 kts | 18° |
| 2026-05-06 15:50 | 50.98641 | -0.59137 | 5805 ft | 246 kts | 18° |
| 2026-05-06 15:50 | 51.00108 | -0.58301 | 5445 ft | 247 kts | 18° |
| 2026-05-06 15:50 | 51.01728 | -0.57383 | 5122 ft | 244 kts | 18° |
| 2026-05-06 15:50 | 51.03153 | -0.56582 | 5021 ft | 234 kts | 18° |
| 2026-05-06 15:51 | 51.04631 | -0.55751 | 4985 ft | 221 kts | 18° |
| 2026-05-06 15:51 | 51.06031 | -0.54963 | 4992 ft | 206 kts | 18° |
| 2026-05-06 15:51 | 51.07307 | -0.54240 | 5052 ft | 183 kts | 18° |
| 2026-05-06 15:51 | 51.08483 | -0.53570 | 4979 ft | 177 kts | 18° |
| 2026-05-06 15:52 | 51.09647 | -0.52905 | 4993 ft | 178 kts | 18° |
| 2026-05-06 15:52 | 51.10438 | -0.52452 | 4993 ft | 179 kts | 18° |
| 2026-05-06 15:52 | 51.11828 | -0.51654 | 4963 ft | 165 kts | 18° |
| 2026-05-06 15:52 | 51.12871 | -0.51054 | 4970 ft | 156 kts | 18° |
| 2026-05-06 15:53 | 51.13800 | -0.50519 | 5009 ft | 158 kts | 18° |
| 2026-05-06 15:53 | 51.14389 | -0.50179 | 4995 ft | 157 kts | 18° |
| 2026-05-06 15:53 | 51.15421 | -0.49581 | 4991 ft | 158 kts | 18° |
| 2026-05-06 15:53 | 51.16496 | -0.49353 | 4938 ft | 158 kts | 349° |
| 2026-05-06 15:54 | 51.17370 | -0.50391 | 4861 ft | 167 kts | 308° |
| 2026-05-06 15:54 | 51.17580 | -0.52212 | 4508 ft | 175 kts | 265° |
| 2026-05-06 15:54 | 51.16983 | -0.53897 | 4224 ft | 177 kts | 233° |
| 2026-05-06 15:54 | 51.16132 | -0.55304 | 3942 ft | 176 kts | 228° |
| 2026-05-06 15:55 | 51.15263 | -0.56690 | 3642 ft | 176 kts | 228° |
| 2026-05-06 15:55 | 51.14400 | -0.58064 | 3344 ft | 175 kts | 228° |
| 2026-05-06 15:55 | 51.13543 | -0.59432 | 3102 ft | 172 kts | 228° |
| 2026-05-06 15:55 | 51.12684 | -0.60759 | 3005 ft | 173 kts | 221° |
| 2026-05-06 15:56 | 51.11542 | -0.61339 | 2956 ft | 177 kts | 178° |
| 2026-05-06 15:56 | 51.10441 | -0.60556 | 2998 ft | 175 kts | 134° |
| 2026-05-06 15:56 | 51.09904 | -0.58892 | 3036 ft | 168 kts | 102° |
| 2026-05-06 15:56 | 51.09673 | -0.57074 | 2996 ft | 167 kts | 91° |
| 2026-05-06 15:57 | 51.09732 | -0.55260 | 3000 ft | 163 kts | 79° |
| 2026-05-06 15:57 | 51.09908 | -0.53480 | 2993 ft | 162 kts | 75° |
| 2026-05-06 15:57 | 51.10139 | -0.51728 | 2990 ft | 161 kts | 73° |
| 2026-05-06 15:57 | 51.10407 | -0.50015 | 2992 ft | 161 kts | 71° |
| 2026-05-06 15:58 | 51.10699 | -0.48284 | 2990 ft | 161 kts | 71° |
| 2026-05-06 15:58 | 51.10994 | -0.46550 | 2991 ft | 162 kts | 71° |
| 2026-05-06 15:58 | 51.11275 | -0.44821 | 2985 ft | 162 kts | 72° |
| 2026-05-06 15:58 | 51.11539 | -0.43077 | 2980 ft | 162 kts | 73° |
| 2026-05-06 15:59 | 51.11789 | -0.41306 | 2685 ft | 164 kts | 73° |
| 2026-05-06 15:59 | 51.12018 | -0.39550 | 2380 ft | 160 kts | 75° |
| 2026-05-06 15:59 | 51.12255 | -0.37824 | 2158 ft | 160 kts | 75° |
| 2026-05-06 15:59 | 51.12495 | -0.36092 | 2029 ft | 161 kts | 75° |
| 2026-05-06 16:00 | 51.12717 | -0.34372 | 1972 ft | 152 kts | 75° |
| 2026-05-06 16:00 | 51.12918 | -0.32752 | 1774 ft | 148 kts | 75° |
| 2026-05-06 16:00 | 51.13126 | -0.31165 | 1509 ft | 145 kts | 73° |
| 2026-05-06 16:00 | 51.13324 | -0.29744 | 1314 ft | 144 kts | 73° |
| 2026-05-06 16:01 | 51.13542 | -0.28227 | 1110 ft | 136 kts | 74° |
| 2026-05-06 16:01 | 51.13748 | -0.26809 | 862 ft | 128 kts | 76° |
| 2026-05-06 16:01 | 51.13952 | -0.25387 | 702 ft | 135 kts | 77° |
| 2026-05-06 16:01 | 51.14127 | -0.23947 | 693 ft | 133 kts | 78° |
| 2026-05-06 16:02 | 51.14310 | -0.22471 | 448 ft | 137 kts | 77° |
| 2026-05-06 16:02 | 51.14533 | -0.21018 | 282 ft | 132 kts | 77° |
| 2026-05-06 16:02 | 51.14716 | -0.19726 | 207 ft | 86 kts | 85° |
| 2026-05-06 16:02 | 51.14756 | -0.19395 | 207 ft | 3 kts | 78° |
| 2026-05-06 16:03 | 51.14778 | -0.19231 | 207 ft | 24 kts | 77° |
| 2026-05-06 16:03 | 51.14811 | -0.18995 | 207 ft | 20 kts | 77° |
| 2026-05-06 16:03 | 51.14840 | -0.18784 | 207 ft | 20 kts | 77° |
| 2026-05-06 16:03 | 51.14881 | -0.18619 | 207 ft | 12 kts | 58° |
| 2026-05-06 16:04 | 51.14928 | -0.18519 | 207 ft | 12 kts | 51° |
| 2026-05-06 16:04 | 51.14971 | -0.18437 | 207 ft | 5 kts | 50° |
| 2026-05-06 16:04 | 51.15000 | -0.18382 | 207 ft | 6 kts | 50° |
| 2026-05-06 16:04 | 51.15034 | -0.18315 | 207 ft | 9 kts | 50° |
| 2026-05-06 16:05 | 51.15041 | -0.18302 | 207 ft | 1 kts | 50° |
| 2026-05-06 16:05 | 51.15045 | -0.18295 | 207 ft | 0 kts | 50° |
| 2026-05-06 16:05 | 51.15046 | -0.18293 | 207 ft | 0 kts | 50° |
| 2026-05-06 16:05 | 51.15054 | -0.18277 | 207 ft | 4 kts | 50° |
| 2026-05-06 16:06 | 51.15081 | -0.18225 | 207 ft | 10 kts | 50° |
| 2026-05-06 16:06 | 51.15118 | -0.18116 | 207 ft | 13 kts | 77° |
| 2026-05-06 16:06 | 51.15139 | -0.17957 | 207 ft | 16 kts | 79° |
| 2026-05-06 16:06 | 51.15161 | -0.17782 | 207 ft | 13 kts | 79° |
| 2026-05-06 16:07 | 51.15180 | -0.17634 | 207 ft | 12 kts | 78° |
| 2026-05-06 16:07 | 51.15198 | -0.17488 | 207 ft | 10 kts | 78° |
| 2026-05-06 16:07 | 51.15226 | -0.17376 | 207 ft | 12 kts | 39° |
| 2026-05-06 16:07 | 51.15288 | -0.17357 | 207 ft | 8 kts | 351° |
| 2026-05-06 16:08 | 51.15351 | -0.17376 | 207 ft | 10 kts | 349° |
| 2026-05-06 16:08 | 51.15426 | -0.17401 | 207 ft | 12 kts | 347° |
| 2026-05-06 16:08 | 51.15505 | -0.17429 | 207 ft | 12 kts | 347° |
| 2026-05-06 16:08 | 51.15579 | -0.17419 | 207 ft | 10 kts | 63° |
| 2026-05-06 16:09 | 51.15592 | -0.17320 | 207 ft | 6 kts | 79° |
| 2026-05-06 16:09 | 51.15603 | -0.17230 | 207 ft | 10 kts | 78° |
| 2026-05-06 16:09 | 51.15618 | -0.17116 | 207 ft | 2 kts | 77° |
| 2026-05-06 16:09 | 51.15623 | -0.17086 | 207 ft | 5 kts | 77° |
| 2026-05-06 16:10 | 51.15633 | -0.17019 | 207 ft | 7 kts | 77° |
| 2026-05-06 16:10 | 51.15644 | -0.16941 | 207 ft | 9 kts | 77° |
| 2026-05-06 16:10 | 51.15678 | -0.16882 | 207 ft | 5 kts | 20° |
| 2026-05-06 16:10 | 51.15699 | -0.16872 | 207 ft | 2 kts | 15° |
| 2026-05-06 16:11 | 51.15720 | -0.16862 | 207 ft | 3 kts | 15° |
| 2026-05-06 16:11 | 51.15731 | -0.16858 | 207 ft | 0 kts | 15° |